Time;durP1;ratioP1;P1;durP2;ratioP2;P2;SDS_P1;SDS_P2;PMS_P1;PMS_P2;Temp;Humidity;BMP_temperature;BMP_pressure;BME280_temperature;BME280_humidity;BME280_pressure;Samples;Min_cycle;Max_cycle;Signal;HPM_P1;HPM_P2
2022/09/17 00:00:31;;;;;;;;;;;20.60;87.70;;;;;;5093918;28;19908;-59
2022/09/17 00:02:56;;;;;;;;;;;20.60;87.70;;;;;;5093872;28;19915;-60
2022/09/17 00:05:22;;;;;;;;;;;20.60;87.60;;;;;;5094058;28;19908;-59
2022/09/17 00:07:48;;;;;;;;;;;20.60;87.70;;;;;;5075786;28;19934;-60
2022/09/17 00:10:14;;;;;;;;;;;20.60;87.80;;;;;;5093553;28;19976;-60
2022/09/17 00:12:40;;;;;;;;;;;20.60;87.80;;;;;;5075778;28;20355;-60
2022/09/17 00:15:06;;;;;;;;;;;20.60;87.90;;;;;;5093955;28;20287;-60
2022/09/17 00:17:31;;;;;;;;;;;20.60;87.80;;;;;;5093862;28;19917;-60
2022/09/17 00:19:57;;;;;;;;;;;20.60;87.80;;;;;;5093463;28;19908;-60
2022/09/17 00:22:22;;;;;;;;;;;20.60;87.90;;;;;;5075542;28;19965;-59
2022/09/17 00:24:47;;;;;;;;;;;20.60;87.80;;;;;;5093565;28;19909;-60
2022/09/17 00:27:13;;;;;;;;;;;20.50;87.90;;;;;;5094891;28;20302;-60
2022/09/17 00:29:38;;;;;;;;;;;20.60;87.80;;;;;;5097567;28;19915;-59
2022/09/17 00:32:04;;;;;;;;;;;20.60;87.80;;;;;;5097476;28;19912;-60
2022/09/17 00:34:29;;;;;;;;;;;20.50;87.80;;;;;;5097252;28;19958;-60
2022/09/17 00:36:55;;;;;;;;;;;20.50;87.80;;;;;;5097408;28;19916;-59
2022/09/17 00:39:20;;;;;;;;;;;20.50;88.30;;;;;;5097317;28;20266;-60
2022/09/17 00:41:46;;;;;;;;;;;20.50;87.90;;;;;;5097289;28;19915;-59
2022/09/17 00:44:29;;;;;;;;;;;20.50;87.90;;;;;;5097325;28;20012;-60
2022/09/17 00:46:55;;;;;;;;;;;20.50;87.90;;;;;;5096857;28;19908;-59
2022/09/17 00:49:27;;;;;;;;;;;20.50;87.90;;;;;;5097144;28;20307;-60
2022/09/17 00:51:58;;;;;;;;;;;20.50;87.90;;;;;;5097020;28;20263;-58
2022/09/17 00:54:25;;;;;;;;;;;20.50;87.80;;;;;;5096989;28;19919;-60
2022/09/17 00:56:50;;;;;;;;;;;20.50;87.90;;;;;;5079106;28;20353;-59
2022/09/17 00:59:17;;;;;;;;;;;20.50;87.90;;;;;;5096572;28;19908;-60
2022/09/17 01:01:42;;;;;;;;;;;20.50;87.90;;;;;;5096926;28;19915;-59
2022/09/17 01:04:14;;;;;;;;;;;20.50;87.90;;;;;;5096948;28;20332;-59
2022/09/17 01:06:45;;;;;;;;;;;20.50;87.90;;;;;;5096911;28;20019;-59
2022/09/17 01:09:10;;;;;;;;;;;20.50;87.90;;;;;;5096841;28;19908;-59
2022/09/17 01:11:36;;;;;;;;;;;20.50;87.90;;;;;;5096873;28;19912;-60
2022/09/17 01:14:16;;;;;;;;;;;20.50;87.90;;;;;;5096333;28;19912;-59
2022/09/17 01:16:57;;;;;;;;;;;20.50;87.90;;;;;;5096608;28;19908;-59
2022/09/17 01:19:41;;;;;;;;;;;20.50;87.90;;;;;;5096308;28;19930;-60
2022/09/17 01:22:11;;;;;;;;;;;20.50;88.00;;;;;;5096125;28;20003;-59
2022/09/17 01:24:48;;;;;;;;;;;20.50;88.00;;;;;;5096192;28;19995;-60
2022/09/17 01:27:29;;;;;;;;;;;20.50;87.90;;;;;;5078327;28;19912;-59
2022/09/17 01:30:04;;;;;;;;;;;20.50;88.00;;;;;;5096391;28;19995;-59
2022/09/17 01:32:29;;;;;;;;;;;20.50;88.10;;;;;;5096124;28;19916;-59
2022/09/17 01:35:18;;;;;;;;;;;20.50;88.10;;;;;;5078150;28;20289;-59
2022/09/17 01:37:53;;;;;;;;;;;20.50;88.10;;;;;;5096028;28;19912;-59
2022/09/17 01:40:28;;;;;;;;;;;20.50;88.10;;;;;;5077606;28;19908;-59
2022/09/17 01:43:02;;;;;;;;;;;20.50;88.00;;;;;;5096103;28;20006;-59
2022/09/17 01:45:38;;;;;;;;;;;20.50;88.00;;;;;;5095828;28;19962;-59
2022/09/17 01:48:08;;;;;;;;;;;20.50;88.10;;;;;;5096047;28;19981;-59
2022/09/17 01:50:37;;;;;;;;;;;20.50;88.10;;;;;;5096028;28;20003;-60
2022/09/17 01:53:04;;;;;;;;;;;20.50;88.10;;;;;;5095940;28;19939;-59
2022/09/17 01:55:32;;;;;;;;;;;20.40;88.10;;;;;;5077754;28;19931;-59
2022/09/17 01:58:01;;;;;;;;;;;20.50;88.10;;;;;;5095515;28;20319;-59
2022/09/17 02:00:27;;;;;;;;;;;20.50;88.20;;;;;;5096146;28;19953;-59
2022/09/17 02:02:55;;;;;;;;;;;20.40;88.10;;;;;;5095219;28;19916;-59
2022/09/17 02:05:28;;;;;;;;;;;20.40;88.10;;;;;;5077713;28;19914;-59
2022/09/17 02:07:56;;;;;;;;;;;20.50;88.20;;;;;;5095347;28;19913;-59
2022/09/17 02:10:25;;;;;;;;;;;20.40;88.20;;;;;;5077513;28;20298;-59
2022/09/17 02:12:55;;;;;;;;;;;20.40;88.20;;;;;;5095511;28;19916;-59
2022/09/17 02:15:23;;;;;;;;;;;20.40;88.10;;;;;;5077462;28;19962;-59
2022/09/17 02:18:03;;;;;;;;;;;20.40;88.20;;;;;;5077315;28;19999;-59
2022/09/17 02:20:34;;;;;;;;;;;20.40;88.20;;;;;;5077316;28;19908;-59
2022/09/17 02:23:05;;;;;;;;;;;20.40;88.20;;;;;;5095881;28;19914;-59
2022/09/17 02:25:57;;;;;;;;;;;20.40;88.20;;;;;;5077359;28;20290;-57
2022/09/17 02:28:32;;;;;;;;;;;20.40;88.10;;;;;;5091879;28;19908;-59
2022/09/17 02:30:57;;;;;;;;;;;20.40;88.20;;;;;;5094968;28;19938;-58
2022/09/17 02:33:23;;;;;;;;;;;20.40;88.10;;;;;;5077026;28;19916;-59
2022/09/17 02:35:49;;;;;;;;;;;20.40;88.20;;;;;;5095171;28;19912;-59
2022/09/17 02:38:24;;;;;;;;;;;20.40;88.20;;;;;;5076902;28;19915;-59
2022/09/17 02:40:53;;;;;;;;;;;20.40;88.20;;;;;;5094660;28;19962;-59
2022/09/17 02:43:24;;;;;;;;;;;20.40;88.20;;;;;;5095036;28;19914;-59
2022/09/17 02:46:08;;;;;;;;;;;20.40;88.30;;;;;;5094658;28;19954;-59
2022/09/17 02:48:43;;;;;;;;;;;20.40;88.30;;;;;;5094670;28;19908;-59
2022/09/17 02:51:27;;;;;;;;;;;20.40;88.20;;;;;;5094516;28;19912;-59
2022/09/17 02:53:59;;;;;;;;;;;20.40;88.30;;;;;;5094501;28;20423;-59
2022/09/17 02:56:25;;;;;;;;;;;20.40;88.30;;;;;;5094662;28;19915;-59
2022/09/17 02:58:52;;;;;;;;;;;20.40;88.20;;;;;;5095056;28;19908;-59
2022/09/17 03:01:39;;;;;;;;;;;20.40;88.30;;;;;;5094420;28;20347;-59
2022/09/17 03:04:07;;;;;;;;;;;20.40;88.30;;;;;;5094652;28;19920;-60
2022/09/17 03:06:32;;;;;;;;;;;20.40;88.30;;;;;;5076370;28;19908;-59
2022/09/17 03:08:58;;;;;;;;;;;20.30;88.30;;;;;;5094527;28;19974;-59
2022/09/17 03:11:23;;;;;;;;;;;20.40;88.30;;;;;;5094027;28;19923;-60
2022/09/17 03:13:49;;;;;;;;;;;20.40;88.40;;;;;;5094355;28;19912;-59
2022/09/17 03:16:14;;;;;;;;;;;20.40;88.30;;;;;;5094392;28;19913;-59
2022/09/17 03:18:40;;;;;;;;;;;20.30;88.20;;;;;;5094255;28;19959;-59
2022/09/17 03:21:05;;;;;;;;;;;20.30;88.30;;;;;;5093985;28;19999;-59
2022/09/17 03:23:31;;;;;;;;;;;20.30;88.30;;;;;;5094345;28;19908;-59
2022/09/17 03:25:57;;;;;;;;;;;20.30;88.30;;;;;;5076202;28;19909;-59
2022/09/17 03:28:25;;;;;;;;;;;20.30;88.30;;;;;;5094234;28;19971;-60
2022/09/17 03:30:51;;;;;;;;;;;20.30;88.30;;;;;;5093769;28;19978;-55
2022/09/17 03:33:16;;;;;;;;;;;20.30;88.30;;;;;;5093869;28;19932;-59
2022/09/17 03:35:45;;;;;;;;;;;20.30;88.30;;;;;;5093871;28;20358;-59
2022/09/17 03:38:11;;;;;;;;;;;20.30;88.30;;;;;;5093871;28;20363;-59
2022/09/17 03:40:36;;;;;;;;;;;20.30;88.30;;;;;;5094443;28;19915;-59
2022/09/17 03:43:02;;;;;;;;;;;20.30;88.30;;;;;;5094047;28;19999;-59
2022/09/17 03:45:27;;;;;;;;;;;20.30;88.30;;;;;;5075914;28;19978;-59
2022/09/17 03:47:52;;;;;;;;;;;20.30;88.40;;;;;;5094068;28;19958;-59
2022/09/17 03:50:18;;;;;;;;;;;20.30;88.30;;;;;;5075960;28;20335;-60
2022/09/17 03:52:43;;;;;;;;;;;20.30;88.30;;;;;;5091697;28;19912;-59
2022/09/17 03:55:10;;;;;;;;;;;20.30;88.30;;;;;;5094261;28;19916;-60
2022/09/17 03:57:35;;;;;;;;;;;20.30;88.30;;;;;;5093935;28;19915;-59
2022/09/17 04:00:01;;;;;;;;;;;20.30;88.30;;;;;;5093446;28;20255;-59
2022/09/17 04:02:26;;;;;;;;;;;20.30;88.40;;;;;;5095769;28;20378;-59
2022/09/17 04:04:52;;;;;;;;;;;20.30;88.30;;;;;;5097457;28;20371;-60
2022/09/17 04:07:18;;;;;;;;;;;20.30;88.30;;;;;;5097829;28;19961;-59
2022/09/17 04:09:43;;;;;;;;;;;20.30;88.90;;;;;;5097817;28;20006;-59
2022/09/17 04:12:09;;;;;;;;;;;20.30;88.30;;;;;;5097653;28;19919;-60
2022/09/17 04:14:35;;;;;;;;;;;20.30;88.30;;;;;;5097510;28;19912;-59
2022/09/17 04:17:00;;;;;;;;;;;20.20;88.30;;;;;;5097504;28;20008;-58
2022/09/17 04:19:26;;;;;;;;;;;20.30;88.40;;;;;;5097235;28;19915;-60
2022/09/17 04:21:51;;;;;;;;;;;20.30;88.30;;;;;;5078394;28;19935;-59
2022/09/17 04:24:17;;;;;;;;;;;20.30;88.40;;;;;;5097487;28;19922;-59
2022/09/17 04:26:42;;;;;;;;;;;20.30;88.30;;;;;;5079221;28;19912;-59
2022/09/17 04:29:09;;;;;;;;;;;20.30;88.30;;;;;;5097053;28;19908;-59
2022/09/17 04:31:34;;;;;;;;;;;20.30;88.40;;;;;;5097266;28;19932;-59
2022/09/17 04:34:00;;;;;;;;;;;20.20;88.30;;;;;;5096915;28;19912;-59
2022/09/17 04:36:25;;;;;;;;;;;20.20;88.30;;;;;;5097247;28;19908;-59
2022/09/17 04:38:50;;;;;;;;;;;20.30;88.40;;;;;;5097483;28;19908;-61
2022/09/17 04:41:16;;;;;;;;;;;20.30;88.40;;;;;;5094985;28;19920;-60
2022/09/17 04:43:41;;;;;;;;;;;20.30;88.30;;;;;;5097169;28;19915;-59
2022/09/17 04:46:07;;;;;;;;;;;20.30;88.30;;;;;;5096791;28;19999;-60
2022/09/17 04:48:33;;;;;;;;;;;20.30;88.20;;;;;;5078935;28;19916;-59
2022/09/17 04:50:58;;;;;;;;;;;20.30;88.10;;;;;;5096815;28;19912;-59
2022/09/17 04:53:24;;;;;;;;;;;20.20;88.10;;;;;;5096623;28;19916;-59
2022/09/17 04:55:49;;;;;;;;;;;20.30;88.20;;;;;;5094969;28;19913;-59
2022/09/17 04:58:15;;;;;;;;;;;20.20;88.20;;;;;;5096496;28;20324;-59
2022/09/17 05:00:41;;;;;;;;;;;20.20;88.20;;;;;;5096389;28;19938;-60
2022/09/17 05:03:06;;;;;;;;;;;20.30;88.20;;;;;;5096458;28;19908;-59
2022/09/17 05:05:32;;;;;;;;;;;20.30;88.20;;;;;;5095299;28;19922;-59
2022/09/17 05:07:57;;;;;;;;;;;20.30;88.30;;;;;;5094253;28;20155;-57
2022/09/17 05:10:23;;;;;;;;;;;20.30;88.20;;;;;;5094383;28;19935;-57
2022/09/17 05:12:49;;;;;;;;;;;20.30;88.30;;;;;;5075729;28;19912;-59
2022/09/17 05:15:15;;;;;;;;;;;20.20;88.30;;;;;;5093198;28;19912;-59
2022/09/17 05:17:40;;;;;;;;;;;20.20;88.30;;;;;;5094451;28;19915;-59
2022/09/17 05:20:06;;;;;;;;;;;20.20;88.30;;;;;;5094686;28;19908;-60
2022/09/17 05:22:31;;;;;;;;;;;20.20;88.30;;;;;;5096002;28;19908;-59
2022/09/17 05:24:57;;;;;;;;;;;20.20;88.30;;;;;;5095883;28;20373;-59
2022/09/17 05:27:22;;;;;;;;;;;20.20;88.40;;;;;;5096348;28;19951;-59
2022/09/17 05:29:48;;;;;;;;;;;20.20;88.90;;;;;;5096130;28;19908;-59
2022/09/17 05:32:14;;;;;;;;;;;20.30;88.40;;;;;;5077944;28;19916;-60
2022/09/17 05:34:40;;;;;;;;;;;20.20;88.40;;;;;;5096343;28;20331;-59
2022/09/17 05:37:07;;;;;;;;;;;20.20;88.40;;;;;;5077912;28;19997;-59
2022/09/17 05:39:33;;;;;;;;;;;20.20;88.40;;;;;;5095725;28;19919;-59
2022/09/17 05:41:58;;;;;;;;;;;20.20;88.40;;;;;;5095642;28;19908;-59
2022/09/17 05:44:24;;;;;;;;;;;20.20;88.90;;;;;;5095656;28;19912;-58
2022/09/17 05:46:51;;;;;;;;;;;20.20;88.40;;;;;;5095629;28;20373;-59
2022/09/17 05:49:17;;;;;;;;;;;20.20;88.40;;;;;;5095714;28;19931;-58
2022/09/17 05:51:42;;;;;;;;;;;20.20;88.40;;;;;;5095452;28;20347;-58
2022/09/17 05:54:08;;;;;;;;;;;20.30;88.40;;;;;;5077568;28;19963;-59
2022/09/17 05:56:33;;;;;;;;;;;20.20;88.40;;;;;;5095927;28;20341;-58
2022/09/17 05:58:59;;;;;;;;;;;20.20;88.40;;;;;;5095386;28;19914;-58
2022/09/17 06:01:24;;;;;;;;;;;20.20;88.40;;;;;;5095318;28;19908;-57
2022/09/17 06:03:50;;;;;;;;;;;20.20;88.40;;;;;;5095509;28;19920;-59
2022/09/17 06:06:15;;;;;;;;;;;20.20;88.40;;;;;;5095558;28;19914;-58
2022/09/17 06:08:41;;;;;;;;;;;20.20;88.40;;;;;;5077180;28;19916;-58
2022/09/17 06:11:07;;;;;;;;;;;20.20;88.40;;;;;;5095309;28;20014;-58
2022/09/17 06:13:33;;;;;;;;;;;20.20;88.50;;;;;;5077185;28;20050;-58
2022/09/17 06:15:59;;;;;;;;;;;20.20;88.40;;;;;;5094909;28;19966;-59
2022/09/17 06:18:25;;;;;;;;;;;20.20;88.40;;;;;;5077028;28;19915;-58
2022/09/17 06:20:55;;;;;;;;;;;20.20;88.40;;;;;;5094872;28;19908;-59
2022/09/17 06:23:20;;;;;;;;;;;20.20;88.40;;;;;;5094917;28;20389;-59
2022/09/17 06:25:50;;;;;;;;;;;20.20;88.40;;;;;;5094744;28;19934;-57
2022/09/17 06:28:16;;;;;;;;;;;20.20;88.40;;;;;;5094377;28;19951;-59
2022/09/17 06:30:41;;;;;;;;;;;20.20;88.40;;;;;;5094950;28;20290;-59
2022/09/17 06:33:07;;;;;;;;;;;20.20;88.40;;;;;;5094563;28;19918;-59
2022/09/17 06:35:32;;;;;;;;;;;20.20;88.40;;;;;;5094451;28;20002;-59
2022/09/17 06:37:58;;;;;;;;;;;20.20;88.30;;;;;;5094221;28;19908;-59
2022/09/17 06:40:23;;;;;;;;;;;20.20;88.40;;;;;;5094416;28;19912;-59
2022/09/17 06:42:49;;;;;;;;;;;20.20;88.40;;;;;;5094775;28;19999;-59
2022/09/17 06:45:15;;;;;;;;;;;20.20;88.30;;;;;;5094637;28;19912;-58
2022/09/17 06:47:40;;;;;;;;;;;20.20;88.40;;;;;;5076245;28;20291;-59
2022/09/17 06:50:06;;;;;;;;;;;20.20;88.50;;;;;;5094338;28;19908;-59
2022/09/17 06:52:31;;;;;;;;;;;20.20;88.40;;;;;;5094306;28;19964;-59
2022/09/17 06:54:57;;;;;;;;;;;20.20;88.40;;;;;;5076068;28;19919;-58
2022/09/17 06:57:22;;;;;;;;;;;20.20;88.40;;;;;;5094454;28;19915;-58
2022/09/17 06:59:49;;;;;;;;;;;20.20;88.40;;;;;;5094579;28;20398;-58
2022/09/17 07:02:14;;;;;;;;;;;20.20;88.40;;;;;;5094366;28;19914;-59
2022/09/17 07:04:40;;;;;;;;;;;20.20;88.40;;;;;;5094521;28;20006;-59
2022/09/17 07:07:05;;;;;;;;;;;20.20;88.40;;;;;;5094307;28;19931;-58
2022/09/17 07:09:31;;;;;;;;;;;20.20;88.40;;;;;;5094450;28;19915;-58
2022/09/17 07:11:56;;;;;;;;;;;20.20;88.40;;;;;;5094098;28;19918;-58
2022/09/17 07:14:23;;;;;;;;;;;20.20;88.40;;;;;;5094278;28;20358;-59
2022/09/17 07:16:49;;;;;;;;;;;20.20;88.30;;;;;;5076058;28;19915;-58
2022/09/17 07:19:14;;;;;;;;;;;20.20;88.30;;;;;;5094187;28;19909;-58
2022/09/17 07:21:40;;;;;;;;;;;20.20;88.30;;;;;;5074235;28;20023;-59
2022/09/17 07:24:05;;;;;;;;;;;20.20;88.30;;;;;;5093894;28;20318;-58
2022/09/17 07:26:30;;;;;;;;;;;20.20;88.30;;;;;;5092815;28;19974;-59
2022/09/17 07:28:56;;;;;;;;;;;20.20;88.30;;;;;;5075766;28;19934;-59
2022/09/17 07:31:22;;;;;;;;;;;20.20;88.20;;;;;;5093582;28;19920;-59
2022/09/17 07:33:47;;;;;;;;;;;20.20;88.20;;;;;;5091759;28;19923;-59
2022/09/17 07:36:16;;;;;;;;;;;20.30;88.10;;;;;;5093579;28;20381;-57
2022/09/17 07:38:42;;;;;;;;;;;20.30;88.10;;;;;;5097505;28;19919;-58
2022/09/17 07:41:12;;;;;;;;;;;20.30;88.00;;;;;;5093236;28;19908;-58
2022/09/17 07:43:37;;;;;;;;;;;20.30;88.00;;;;;;5097589;28;20290;-59
2022/09/17 07:46:04;;;;;;;;;;;20.30;87.90;;;;;;5099989;28;19912;-59
2022/09/17 07:48:30;;;;;;;;;;;20.30;87.90;;;;;;5090221;28;20053;-58
2022/09/17 07:50:55;;;;;;;;;;;20.30;87.90;;;;;;5073090;28;20321;-54
2022/09/17 07:53:21;;;;;;;;;;;20.30;87.80;;;;;;5091993;28;19962;-57
2022/09/17 07:55:53;;;;;;;;;;;20.30;87.90;;;;;;5092064;28;19971;-58
2022/09/17 07:58:20;;;;;;;;;;;20.30;87.90;;;;;;5091845;28;19908;-59
2022/09/17 08:00:46;;;;;;;;;;;20.30;87.90;;;;;;5089808;28;19916;-58
2022/09/17 08:03:12;;;;;;;;;;;20.30;87.80;;;;;;5091853;28;20054;-56
2022/09/17 08:05:37;;;;;;;;;;;20.40;87.90;;;;;;5093531;28;19940;-59
2022/09/17 08:08:03;;;;;;;;;;;20.40;87.90;;;;;;5093475;28;19918;-56
2022/09/17 08:10:28;;;;;;;;;;;20.30;87.90;;;;;;5093297;28;20406;-58
2022/09/17 08:12:55;;;;;;;;;;;20.30;87.80;;;;;;5075444;28;20018;-58
2022/09/17 08:15:20;;;;;;;;;;;20.30;87.80;;;;;;5093286;28;19912;-56
2022/09/17 08:17:46;;;;;;;;;;;20.40;87.80;;;;;;5091180;28;20397;-58
2022/09/17 08:20:13;;;;;;;;;;;20.30;87.80;;;;;;5082029;28;19908;-56
2022/09/17 08:22:38;;;;;;;;;;;20.30;87.80;;;;;;5093147;28;20275;-57
2022/09/17 08:25:05;;;;;;;;;;;20.30;87.80;;;;;;5095680;28;19911;-58
2022/09/17 08:27:30;;;;;;;;;;;20.30;87.80;;;;;;5104339;28;20447;-61
2022/09/17 08:29:56;;;;;;;;;;;20.30;88.00;;;;;;5109401;28;19950;-63
2022/09/17 08:32:22;;;;;;;;;;;20.30;88.30;;;;;;5082242;28;20306;-61
2022/09/17 08:34:47;;;;;;;;;;;20.30;88.30;;;;;;5073144;28;19921;-61
2022/09/17 08:37:13;;;;;;;;;;;20.30;88.30;;;;;;5058746;28;19942;-63
2022/09/17 08:39:38;;;;;;;;;;;20.40;88.30;;;;;;5097462;28;19935;-66
2022/09/17 08:42:09;;;;;;;;;;;20.30;88.30;;;;;;5095458;28;19966;-60
2022/09/17 08:44:39;;;;;;;;;;;20.30;88.30;;;;;;5105994;28;19912;-60
2022/09/17 08:47:23;;;;;;;;;;;20.30;88.40;;;;;;5100023;28;20342;-60
2022/09/17 08:49:56;;;;;;;;;;;20.40;88.40;;;;;;5098991;28;19927;-60
2022/09/17 08:52:33;;;;;;;;;;;20.40;88.30;;;;;;5094454;28;19938;-60
2022/09/17 08:55:17;;;;;;;;;;;20.30;88.10;;;;;;5095461;28;19923;-60
2022/09/17 08:58:01;;;;;;;;;;;20.30;88.10;;;;;;5092114;28;19914;-60
2022/09/17 09:00:30;;;;;;;;;;;20.30;88.00;;;;;;5108357;28;20354;-60
2022/09/17 09:03:14;;;;;;;;;;;20.30;88.00;;;;;;5108568;28;19919;-60
2022/09/17 09:05:40;;;;;;;;;;;20.40;88.60;;;;;;5105435;28;19966;-60
2022/09/17 09:08:11;;;;;;;;;;;20.30;87.90;;;;;;5110689;28;19916;-60
2022/09/17 09:10:54;;;;;;;;;;;20.30;88.00;;;;;;5104349;28;19966;-60
2022/09/17 09:13:21;;;;;;;;;;;20.30;88.10;;;;;;5086516;28;19999;-60
2022/09/17 09:15:53;;;;;;;;;;;20.30;87.90;;;;;;5089798;28;21007;-60
2022/09/17 09:18:19;;;;;;;;;;;20.30;87.90;;;;;;5095808;28;19908;-60
2022/09/17 09:20:47;;;;;;;;;;;20.30;87.90;;;;;;5077745;28;19967;-64
2022/09/17 09:23:24;;;;;;;;;;;20.30;88.00;;;;;;5096024;28;19908;-63
2022/09/17 09:25:57;;;;;;;;;;;20.30;88.00;;;;;;5096010;28;19947;-64
2022/09/17 09:28:25;;;;;;;;;;;20.30;88.10;;;;;;5096235;28;19908;-52
2022/09/17 09:31:09;;;;;;;;;;;20.20;88.20;;;;;;5095622;28;19909;-54
2022/09/17 09:33:36;;;;;;;;;;;20.30;88.30;;;;;;5077581;28;19912;-56
2022/09/17 09:36:06;;;;;;;;;;;20.30;88.40;;;;;;5095748;28;20345;-52
2022/09/17 09:38:34;;;;;;;;;;;20.30;88.30;;;;;;5095197;28;20341;-55
2022/09/17 09:41:02;;;;;;;;;;;20.30;88.30;;;;;;5095723;28;20281;-57
2022/09/17 09:43:40;;;;;;;;;;;20.30;88.20;;;;;;5077290;28;19909;-55
2022/09/17 09:46:08;;;;;;;;;;;20.30;88.00;;;;;;5095288;28;19912;-58
2022/09/17 09:48:53;;;;;;;;;;;20.30;88.00;;;;;;5095348;28;20007;-53
2022/09/17 09:51:21;;;;;;;;;;;20.30;88.00;;;;;;5109245;28;19919;-55
2022/09/17 09:53:52;;;;;;;;;;;20.30;87.90;;;;;;5115998;28;19991;-52
2022/09/17 09:56:32;;;;;;;;;;;20.30;87.80;;;;;;5088446;28;20412;-55
2022/09/17 09:58:57;;;;;;;;;;;20.30;87.70;;;;;;5109234;28;20328;-54
2022/09/17 10:01:26;;;;;;;;;;;20.30;87.70;;;;;;5104960;28;19912;-55
2022/09/17 10:03:52;;;;;;;;;;;20.30;87.70;;;;;;5095046;28;19924;-54
2022/09/17 10:06:18;;;;;;;;;;;20.30;87.70;;;;;;5092992;28;20369;-52
2022/09/17 10:08:44;;;;;;;;;;;20.20;87.80;;;;;;5109625;28;19915;-54
2022/09/17 10:11:12;;;;;;;;;;;20.30;87.80;;;;;;5095329;28;20023;-55
2022/09/17 10:13:39;;;;;;;;;;;20.30;87.80;;;;;;5094869;28;19911;-57
2022/09/17 10:16:22;;;;;;;;;;;20.20;87.70;;;;;;5083456;28;20289;-52
2022/09/17 10:18:54;;;;;;;;;;;20.20;87.70;;;;;;5110615;28;20221;-54
2022/09/17 10:21:21;;;;;;;;;;;20.20;87.80;;;;;;5109776;28;20423;-55
2022/09/17 10:23:47;;;;;;;;;;;20.20;87.70;;;;;;5105573;28;20011;-53
2022/09/17 10:26:39;;;;;;;;;;;20.20;87.70;;;;;;5106911;28;19918;-54
2022/09/17 10:29:10;;;;;;;;;;;20.20;87.70;;;;;;5091498;28;19919;-55
2022/09/17 10:31:49;;;;;;;;;;;20.20;87.60;;;;;;5112824;28;19915;-53
2022/09/17 10:34:19;;;;;;;;;;;20.20;87.60;;;;;;5088330;28;19927;-51
2022/09/17 10:36:45;;;;;;;;;;;20.20;87.60;;;;;;5076474;28;19958;-53
2022/09/17 10:39:26;;;;;;;;;;;20.20;87.60;;;;;;5107098;28;20262;-51
2022/09/17 10:41:55;;;;;;;;;;;20.20;87.50;;;;;;5100485;28;19912;-52
2022/09/17 10:44:25;;;;;;;;;;;20.20;87.70;;;;;;5094623;28;20300;-50
2022/09/17 10:46:51;;;;;;;;;;;20.30;87.60;;;;;;5101534;28;20003;-52
2022/09/17 10:49:23;;;;;;;;;;;20.30;87.70;;;;;;5094198;28;19939;-53
2022/09/17 10:51:49;;;;;;;;;;;20.30;87.70;;;;;;5097516;28;19916;-51
2022/09/17 10:54:25;;;;;;;;;;;20.30;87.70;;;;;;5096108;28;19923;-53
2022/09/17 10:56:53;;;;;;;;;;;20.30;87.80;;;;;;5094426;28;19908;-54
2022/09/17 10:59:36;;;;;;;;;;;20.30;87.80;;;;;;5084634;28;19912;-55
2022/09/17 11:02:01;;;;;;;;;;;20.30;87.80;;;;;;5105956;28;19913;-50
2022/09/17 11:04:27;;;;;;;;;;;20.30;87.80;;;;;;5097573;28;19928;-50
2022/09/17 11:07:12;;;;;;;;;;;20.30;88.30;;;;;;5094274;28;19912;-48
2022/09/17 11:09:56;;;;;;;;;;;20.30;87.80;;;;;;5052592;28;19912;-52
2022/09/17 11:12:24;;;;;;;;;;;20.30;87.80;;;;;;5073272;28;19913;-52
2022/09/17 11:14:50;;;;;;;;;;;20.30;88.20;;;;;;5096259;28;19912;-55
2022/09/17 11:17:35;;;;;;;;;;;20.30;88.30;;;;;;5110884;28;20405;-53
2022/09/17 11:20:00;;;;;;;;;;;20.30;88.60;;;;;;5114421;28;19960;-53
2022/09/17 11:22:26;;;;;;;;;;;20.30;88.70;;;;;;5094938;28;19908;-53
2022/09/17 11:25:10;;;;;;;;;;;20.30;88.80;;;;;;5093999;28;19912;-49
2022/09/17 11:27:48;;;;;;;;;;;20.30;89.10;;;;;;5093642;28;19987;-51
2022/09/17 11:30:17;;;;;;;;;;;20.30;89.20;;;;;;5094086;28;19912;-50
2022/09/17 11:32:48;;;;;;;;;;;20.30;89.00;;;;;;5093268;28;19939;-52
2022/09/17 11:35:16;;;;;;;;;;;20.30;89.00;;;;;;5093526;28;20362;-49
2022/09/17 11:37:53;;;;;;;;;;;20.40;89.00;;;;;;5093507;28;20365;-48
2022/09/17 11:40:21;;;;;;;;;;;20.30;89.20;;;;;;5104587;28;19907;-47
2022/09/17 11:42:49;;;;;;;;;;;20.30;89.30;;;;;;5096559;28;19919;-51
2022/09/17 11:45:21;;;;;;;;;;;20.30;89.10;;;;;;5105393;28;19912;-50
2022/09/17 11:47:50;;;;;;;;;;;20.30;88.90;;;;;;5095306;28;20002;-50
2022/09/17 11:50:19;;;;;;;;;;;20.30;88.70;;;;;;5094021;28;19986;-50
2022/09/17 11:52:53;;;;;;;;;;;20.30;88.50;;;;;;5093304;28;20332;-49
2022/09/17 11:55:22;;;;;;;;;;;20.30;88.40;;;;;;5075436;28;19935;-50
2022/09/17 11:57:50;;;;;;;;;;;20.30;88.20;;;;;;5103187;28;19908;-51
2022/09/17 12:00:19;;;;;;;;;;;20.30;88.10;;;;;;5108519;28;19916;-51
2022/09/17 12:02:49;;;;;;;;;;;20.30;88.10;;;;;;5087988;28;20275;-46
2022/09/17 12:05:34;;;;;;;;;;;20.30;87.90;;;;;;5097804;28;20421;-52
2022/09/17 12:08:13;;;;;;;;;;;20.30;87.90;;;;;;5099384;28;19948;-46
2022/09/17 12:10:47;;;;;;;;;;;20.30;87.90;;;;;;5092082;28;19915;-49
2022/09/17 12:13:16;;;;;;;;;;;20.30;87.80;;;;;;5101454;28;19941;-49
2022/09/17 12:15:43;;;;;;;;;;;20.30;88.30;;;;;;5093378;28;20014;-51
2022/09/17 12:18:09;;;;;;;;;;;20.30;87.60;;;;;;5093964;28;19908;-46
2022/09/17 12:20:36;;;;;;;;;;;20.30;87.50;;;;;;5093787;28;19953;-47
2022/09/17 12:23:03;;;;;;;;;;;20.30;87.50;;;;;;5094388;28;19932;-48
2022/09/17 12:25:32;;;;;;;;;;;20.30;87.60;;;;;;5096967;28;19966;-48
2022/09/17 12:27:58;;;;;;;;;;;20.30;87.60;;;;;;5097430;28;19953;-48
2022/09/17 12:30:28;;;;;;;;;;;20.20;87.60;;;;;;5094712;28;20007;-50
2022/09/17 12:33:01;;;;;;;;;;;20.20;87.50;;;;;;5115106;28;19927;-50
2022/09/17 12:35:46;;;;;;;;;;;20.20;87.50;;;;;;5109290;28;19947;-47
2022/09/17 12:38:20;;;;;;;;;;;20.20;87.50;;;;;;5105356;28;19919;-49
2022/09/17 12:40:56;;;;;;;;;;;20.20;87.50;;;;;;5092939;28;19912;-47
2022/09/17 12:43:37;;;;;;;;;;;20.20;87.40;;;;;;5095200;28;19969;-50
2022/09/17 12:46:06;;;;;;;;;;;20.30;87.40;;;;;;5095029;28;20262;-51
2022/09/17 12:48:34;;;;;;;;;;;20.30;87.40;;;;;;5076760;28;19960;-47
2022/09/17 12:51:18;;;;;;;;;;;20.30;87.30;;;;;;5077972;28;19908;-48
2022/09/17 12:53:47;;;;;;;;;;;20.30;87.20;;;;;;5095724;28;19923;-47
2022/09/17 12:56:18;;;;;;;;;;;20.30;87.20;;;;;;5095262;28;20278;-53
2022/09/17 12:58:56;;;;;;;;;;;20.30;87.20;;;;;;5094851;28;20368;-48
2022/09/17 13:01:27;;;;;;;;;;;20.30;87.20;;;;;;5094876;28;20412;-49
2022/09/17 13:03:56;;;;;;;;;;;20.30;87.20;;;;;;5096161;28;20262;-49
2022/09/17 13:06:27;;;;;;;;;;;20.30;87.30;;;;;;5095564;28;20274;-51
2022/09/17 13:09:11;;;;;;;;;;;20.30;87.20;;;;;;5096171;28;19908;-47
2022/09/17 13:11:55;;;;;;;;;;;20.30;87.20;;;;;;5096090;28;19962;-46
2022/09/17 13:14:26;;;;;;;;;;;20.30;87.30;;;;;;5095977;28;19912;-51
2022/09/17 13:16:55;;;;;;;;;;;20.20;87.20;;;;;;5096202;28;20007;-50
2022/09/17 13:19:29;;;;;;;;;;;20.20;87.20;;;;;;5095864;28;19956;-46
2022/09/17 13:22:06;;;;;;;;;;;20.20;87.20;;;;;;5096372;28;19912;-49
2022/09/17 13:24:32;;;;;;;;;;;20.20;87.30;;;;;;5096162;28;19915;-47
2022/09/17 13:27:00;;;;;;;;;;;20.20;87.30;;;;;;5078110;28;19908;-52
2022/09/17 13:29:44;;;;;;;;;;;20.20;87.30;;;;;;5095806;28;19931;-48
2022/09/17 13:32:28;;;;;;;;;;;20.20;87.30;;;;;;5095768;28;19912;-50
2022/09/17 13:34:54;;;;;;;;;;;20.20;87.30;;;;;;5094625;28;19939;-50
2022/09/17 13:37:21;;;;;;;;;;;20.20;87.30;;;;;;5095860;28;20351;-47
2022/09/17 13:39:49;;;;;;;;;;;20.20;87.30;;;;;;5095632;28;19908;-49
2022/09/17 13:42:29;;;;;;;;;;;20.20;87.40;;;;;;5095413;28;19912;-47
2022/09/17 13:45:15;;;;;;;;;;;20.10;87.40;;;;;;5095856;28;20007;-49
2022/09/17 13:47:59;;;;;;;;;;;20.10;87.40;;;;;;5095613;28;20338;-49
2022/09/17 13:50:30;;;;;;;;;;;20.10;87.40;;;;;;5095663;28;20301;-52
2022/09/17 13:52:56;;;;;;;;;;;20.10;87.40;;;;;;5077305;28;19955;-48
2022/09/17 13:55:35;;;;;;;;;;;20.10;87.40;;;;;;5095363;28;20003;-48
2022/09/17 13:58:03;;;;;;;;;;;20.20;87.40;;;;;;5095512;28;19908;-47
2022/09/17 14:00:47;;;;;;;;;;;20.20;87.30;;;;;;5095039;28;19916;-48
2022/09/17 14:03:36;;;;;;;;;;;20.20;87.40;;;;;;5095243;28;19927;-48
2022/09/17 14:06:06;;;;;;;;;;;20.20;87.40;;;;;;5068891;28;20005;-49
2022/09/17 14:08:44;;;;;;;;;;;20.20;87.30;;;;;;5076965;28;19908;-48
2022/09/17 14:11:22;;;;;;;;;;;20.20;87.40;;;;;;5095305;28;19915;-46
2022/09/17 14:13:50;;;;;;;;;;;20.20;87.40;;;;;;5095254;28;19979;-46
2022/09/17 14:16:22;;;;;;;;;;;20.20;87.40;;;;;;5077206;28;19915;-48
2022/09/17 14:18:57;;;;;;;;;;;20.10;87.40;;;;;;5076866;28;20380;-49
2022/09/17 14:21:25;;;;;;;;;;;20.10;87.40;;;;;;5094772;28;19915;-46
2022/09/17 14:23:54;;;;;;;;;;;20.10;87.40;;;;;;5095194;28;19961;-49
2022/09/17 14:26:34;;;;;;;;;;;20.20;87.40;;;;;;5094628;28;20374;-48
2022/09/17 14:29:01;;;;;;;;;;;20.20;87.40;;;;;;5082640;28;19912;-51